createdAt,value
2018-02-10T00:04:26.728Z,32.07
2018-02-10T00:06:54.165Z,35.57
2018-02-10T00:09:21.862Z,33.50
2018-02-10T00:11:49.318Z,34.47
2018-02-10T00:14:16.800Z,32.47
2018-02-10T00:16:44.254Z,33.80
2018-02-10T00:19:11.816Z,34.03
2018-02-10T00:21:39.240Z,35.10
2018-02-10T00:24:06.721Z,36.90
2018-02-10T00:26:34.361Z,35.17
2018-02-10T00:29:01.826Z,37.27
2018-02-10T00:31:37.892Z,36.17
2018-02-10T00:34:16.500Z,34.63
2018-02-10T00:36:45.405Z,34.33
2018-02-10T00:39:13.114Z,33.57
2018-02-10T00:41:40.586Z,33.03
2018-02-10T00:44:08.023Z,37.60
2018-02-10T00:46:35.780Z,32.55
2018-02-10T00:49:03.355Z,32.80
2018-02-10T00:51:30.811Z,33.17
2018-02-10T00:53:58.268Z,34.80
2018-02-10T00:56:25.785Z,33.70
2018-02-10T00:58:53.361Z,32.67
2018-02-10T01:01:20.800Z,32.58
2018-02-10T01:03:48.240Z,33.97
2018-02-10T01:06:15.756Z,32.67
2018-02-10T01:08:43.211Z,33.00
2018-02-10T01:11:10.674Z,32.60
2018-02-10T01:13:38.237Z,35.47
2018-02-10T01:16:05.702Z,33.87
2018-02-10T01:18:33.144Z,34.10
2018-02-10T01:21:00.578Z,35.83
2018-02-10T01:23:28.112Z,31.40
2018-02-10T01:25:55.563Z,35.13
2018-02-10T01:28:23.012Z,34.33
2018-02-10T01:30:50.447Z,36.03
2018-02-10T01:33:17.909Z,35.60
2018-02-10T01:35:45.329Z,32.97
2018-02-10T01:38:12.780Z,33.25
2018-02-10T01:40:40.268Z,34.07
2018-02-10T01:43:07.713Z,36.97
2018-02-10T01:45:36.048Z,35.28
2018-02-10T01:48:03.512Z,35.80
2018-02-10T01:50:30.947Z,34.78
2018-02-10T01:52:58.384Z,34.97
2018-02-10T01:55:25.899Z,35.50
2018-02-10T01:57:53.324Z,35.27
2018-02-10T02:00:20.837Z,36.73
2018-02-10T02:02:48.274Z,33.30
2018-02-10T02:05:15.727Z,36.67
2018-02-10T02:07:43.152Z,36.97
2018-02-10T02:10:10.629Z,34.40
2018-02-10T02:12:38.100Z,35.60
2018-02-10T02:15:06.166Z,37.47
2018-02-10T02:17:33.605Z,38.13
2018-02-10T02:20:01.057Z,35.95
2018-02-10T02:22:28.497Z,35.40
2018-02-10T02:24:55.956Z,33.90
2018-02-10T02:27:23.393Z,36.37
2018-02-10T02:29:50.845Z,35.57
2018-02-10T02:32:18.279Z,35.13
2018-02-10T02:34:45.740Z,35.10
2018-02-10T02:37:13.174Z,38.50
2018-02-10T02:39:40.620Z,36.00
2018-02-10T02:42:08.070Z,35.93
2018-02-10T02:44:36.447Z,34.77
2018-02-10T02:47:03.932Z,39.20
2018-02-10T02:49:31.366Z,35.67
2018-02-10T02:51:58.846Z,34.90
2018-02-10T02:54:26.285Z,33.57
2018-02-10T02:56:53.805Z,36.73
2018-02-10T02:59:21.248Z,36.53
2018-02-10T03:01:48.707Z,35.53
2018-02-10T03:04:16.140Z,36.87
2018-02-10T03:06:43.596Z,33.95
2018-02-10T03:09:14.187Z,36.73
2018-02-10T03:11:41.631Z,35.63
2018-02-10T03:14:09.069Z,37.67
2018-02-10T03:16:36.525Z,34.27
2018-02-10T03:19:03.956Z,38.80
2018-02-10T03:21:31.428Z,38.13
2018-02-10T03:23:59.613Z,35.47
2018-02-10T03:26:27.169Z,38.00
2018-02-10T03:28:54.628Z,37.10
2018-02-10T03:31:22.075Z,38.35
2018-02-10T03:33:49.553Z,35.33
2018-02-10T03:36:16.994Z,36.50
2018-02-10T03:38:44.447Z,36.03
2018-02-10T03:41:11.960Z,35.57
2018-02-10T03:43:39.431Z,35.80
2018-02-10T03:46:06.877Z,39.10
2018-02-10T03:48:34.392Z,37.10
2018-02-10T03:51:01.820Z,37.80
2018-02-10T03:53:29.299Z,37.37
2018-02-10T03:55:56.749Z,35.37
2018-02-10T03:58:24.384Z,37.65
2018-02-10T04:00:51.830Z,38.90
2018-02-10T04:03:19.280Z,39.50
2018-02-10T04:05:46.740Z,37.97
2018-02-10T04:08:14.194Z,35.85
2018-02-10T04:10:41.652Z,39.60
2018-02-10T04:13:09.117Z,37.40
2018-02-10T04:15:40.933Z,35.58
2018-02-10T04:18:09.702Z,37.20
2018-02-10T04:20:37.912Z,36.88
2018-02-10T04:23:05.445Z,37.27
2018-02-10T04:25:32.927Z,37.00
2018-02-10T04:28:00.372Z,37.17
2018-02-10T04:30:27.806Z,36.37
2018-02-10T04:32:55.255Z,37.27
2018-02-10T04:35:22.696Z,38.15
2018-02-10T04:37:50.220Z,38.00
2018-02-10T04:40:17.634Z,40.83
2018-02-10T04:42:45.090Z,36.07
2018-02-10T04:45:12.516Z,35.20
2018-02-10T04:47:40.088Z,39.60
2018-02-10T04:50:07.542Z,38.90
2018-02-10T04:52:34.996Z,39.40
2018-02-10T04:55:02.473Z,37.53
2018-02-10T04:57:29.930Z,35.90
2018-02-10T04:59:57.449Z,37.37
2018-02-10T05:02:24.913Z,36.70
2018-02-10T05:04:52.340Z,37.53
2018-02-10T05:07:20.276Z,38.10
2018-02-10T05:09:47.761Z,37.72
2018-02-10T05:12:15.208Z,40.17
2018-02-10T05:14:42.652Z,39.63
2018-02-10T05:17:10.111Z,40.37
2018-02-10T05:19:37.558Z,37.80
2018-02-10T05:22:05.025Z,36.07
2018-02-10T05:24:32.472Z,39.60
2018-02-10T05:26:59.900Z,38.38
2018-02-10T05:29:27.352Z,38.87
2018-02-10T05:31:54.790Z,38.53
2018-02-10T05:34:22.247Z,37.13
2018-02-10T05:36:49.675Z,38.40
2018-02-10T05:39:17.153Z,36.13
2018-02-10T05:41:44.668Z,37.33
2018-02-10T05:44:12.113Z,37.00
2018-02-10T05:46:39.535Z,36.70
2018-02-10T05:49:07.116Z,40.20
2018-02-10T05:51:34.549Z,37.33
2018-02-10T05:54:02.001Z,37.40
2018-02-10T05:56:29.450Z,36.57
2018-02-10T05:58:57.036Z,38.15
2018-02-10T06:01:24.552Z,39.43
2018-02-10T06:03:51.988Z,38.85
2018-02-10T06:06:19.506Z,37.78
2018-02-10T06:08:47.113Z,36.53
2018-02-10T06:11:14.559Z,37.10
2018-02-10T06:13:42.085Z,38.33
2018-02-10T06:16:09.538Z,36.27
2018-02-10T06:18:37.173Z,37.53
2018-02-10T06:21:05.034Z,37.53
2018-02-10T06:23:32.464Z,34.88
2018-02-10T06:25:59.892Z,35.83
2018-02-10T06:28:27.351Z,36.23
2018-02-10T06:30:54.798Z,36.53
2018-02-10T06:33:22.253Z,36.80
2018-02-10T06:35:49.690Z,37.83
2018-02-10T06:38:17.130Z,36.20
2018-02-10T06:40:44.643Z,36.40
2018-02-10T06:43:12.095Z,35.88
2018-02-10T06:45:39.517Z,34.13
2018-02-10T06:48:07.531Z,32.65
2018-02-10T06:50:34.981Z,32.60
2018-02-10T06:53:02.443Z,35.37
2018-02-10T06:55:29.905Z,34.37
2018-02-10T06:57:57.361Z,33.67
2018-02-10T07:00:24.898Z,34.47
2018-02-10T07:02:52.328Z,32.70
2018-02-10T07:05:19.768Z,32.27
2018-02-10T07:07:47.205Z,34.87
2018-02-10T07:10:14.663Z,31.83
2018-02-10T07:12:42.104Z,32.70
2018-02-10T07:15:09.591Z,31.43
2018-02-10T07:17:37.428Z,30.45
2018-02-10T07:20:04.998Z,32.60
2018-02-10T07:22:32.464Z,31.77
2018-02-10T07:24:59.981Z,30.23
2018-02-10T07:27:27.461Z,31.83
2018-02-10T07:29:54.897Z,32.23
2018-02-10T07:32:22.374Z,33.33
2018-02-10T07:34:49.818Z,31.37
2018-02-10T07:37:17.459Z,29.57
2018-02-10T07:39:48.857Z,28.00
2018-02-10T07:42:16.965Z,29.55
2018-02-10T07:44:44.563Z,28.33
2018-02-10T07:47:12.017Z,27.10
2018-02-10T07:49:39.464Z,27.17
2018-02-10T07:52:07.578Z,27.52
2018-02-10T07:54:35.006Z,25.67
2018-02-10T07:57:02.470Z,24.98
2018-02-10T07:59:29.948Z,26.43
2018-02-10T08:01:57.390Z,26.40
2018-02-10T08:04:24.939Z,25.57
2018-02-10T08:06:52.380Z,25.80
2018-02-10T08:09:19.852Z,23.93
2018-02-10T08:11:47.288Z,24.40
2018-02-10T08:14:14.854Z,24.50
2018-02-10T08:16:42.319Z,22.83
2018-02-10T08:19:09.813Z,25.90
2018-02-10T08:21:37.687Z,20.98
2018-02-10T08:24:05.145Z,21.00
2018-02-10T08:26:32.620Z,22.67
2018-02-10T08:29:00.073Z,21.50
2018-02-10T08:31:27.575Z,22.07
2018-02-10T08:33:55.520Z,22.37
2018-02-10T08:36:22.959Z,22.73
2018-02-10T08:38:50.417Z,20.70
2018-02-10T08:41:17.876Z,23.27
2018-02-10T08:43:45.332Z,21.10
2018-02-10T08:46:12.781Z,22.02
2018-02-10T08:48:40.245Z,20.20
2018-02-10T08:51:07.764Z,21.33
2018-02-10T08:53:35.267Z,21.47
2018-02-10T08:56:02.724Z,22.90
2018-02-10T08:58:30.196Z,23.40
2018-02-10T09:00:57.741Z,22.20
2018-02-10T09:03:25.187Z,24.53
2018-02-10T09:05:52.660Z,22.00
2018-02-10T09:08:20.090Z,21.90
2018-02-10T09:10:47.984Z,22.25
2018-02-10T09:13:15.436Z,21.80
2018-02-10T09:15:43.008Z,21.93
2018-02-10T09:18:10.476Z,23.57
2018-02-10T09:20:37.969Z,22.35
2018-02-10T09:23:05.552Z,23.70
2018-02-10T09:25:33.000Z,21.15
2018-02-10T09:28:00.450Z,22.90
2018-02-10T09:30:27.908Z,23.20
2018-02-10T09:32:55.365Z,20.47
2018-02-10T09:35:22.837Z,20.70
2018-02-10T09:37:50.277Z,23.70
2018-02-10T09:40:17.721Z,22.80
2018-02-10T09:42:45.156Z,23.50
2018-02-10T09:45:12.928Z,21.67
2018-02-10T09:47:40.919Z,19.10
2018-02-10T09:50:08.380Z,19.47
2018-02-10T09:52:35.838Z,20.77
2018-02-10T09:55:03.293Z,21.77
2018-02-10T09:57:30.859Z,22.57
2018-02-10T09:59:58.305Z,22.20
2018-02-10T10:02:25.763Z,21.63
2018-02-10T10:04:53.190Z,21.97
2018-02-10T10:07:20.654Z,20.87
2018-02-10T10:09:48.127Z,19.63
2018-02-10T10:12:15.653Z,19.93
2018-02-10T10:14:43.149Z,20.33
2018-02-10T10:17:10.601Z,21.17
2018-02-10T10:19:38.144Z,22.80
2018-02-10T10:22:05.615Z,21.10
2018-02-10T10:24:33.049Z,20.85
2018-02-10T10:27:00.507Z,20.03
2018-02-10T10:29:33.867Z,19.20
2018-02-10T10:32:01.300Z,16.97
2018-02-10T10:34:28.772Z,18.97
2018-02-10T10:36:56.262Z,19.30
2018-02-10T10:39:24.009Z,18.47
2018-02-10T10:44:39.296Z,20.75
2018-02-10T10:47:06.900Z,18.47
2018-02-10T10:49:34.360Z,20.03
2018-02-10T10:52:01.852Z,19.00
2018-02-10T10:54:29.358Z,20.07
2018-02-10T10:56:56.856Z,20.00
2018-02-10T10:59:24.308Z,19.40
2018-02-10T11:01:51.741Z,18.90
2018-02-10T11:04:19.606Z,20.52
2018-02-10T11:06:47.257Z,20.80
2018-02-10T11:09:14.694Z,20.30
2018-02-10T11:11:42.140Z,19.30
2018-02-10T11:14:09.609Z,19.27
2018-02-10T11:16:37.084Z,22.50
2018-02-10T11:19:04.510Z,21.63
2018-02-10T11:21:31.955Z,20.20
2018-02-10T11:23:59.469Z,18.02
2018-02-10T11:26:26.996Z,19.20
2018-02-10T11:28:54.463Z,20.20
2018-02-10T11:31:21.971Z,20.67
2018-02-10T11:33:49.409Z,21.40
2018-02-10T11:36:16.881Z,19.33
2018-02-10T11:38:44.426Z,19.50
2018-02-10T11:41:11.914Z,21.93
2018-02-10T11:43:39.367Z,19.50
2018-02-10T11:46:07.546Z,20.27
2018-02-10T11:48:35.006Z,20.93
2018-02-10T11:51:02.441Z,20.80
2018-02-10T11:53:29.914Z,19.17
2018-02-10T11:55:57.364Z,20.37
2018-02-10T11:58:24.810Z,20.10
2018-02-10T12:00:53.637Z,20.87
2018-02-10T12:03:23.533Z,19.67
2018-02-10T12:05:52.780Z,19.97
2018-02-10T12:08:20.502Z,19.20
2018-02-10T12:10:47.950Z,20.60
2018-02-10T12:13:15.386Z,21.98
2018-02-10T12:15:42.834Z,23.23
2018-02-10T12:18:10.264Z,22.30
2018-02-10T12:20:37.721Z,23.40
2018-02-10T12:23:05.147Z,21.40
2018-02-10T12:25:32.642Z,24.07
2018-02-10T12:28:00.086Z,22.90
2018-02-10T12:30:27.681Z,20.58
2018-02-10T12:32:55.108Z,21.50
2018-02-10T12:35:22.563Z,20.42
2018-02-10T12:37:50.258Z,21.77
2018-02-10T12:40:17.682Z,24.10
2018-02-10T12:42:45.157Z,22.07
2018-02-10T12:45:12.687Z,22.00
2018-02-10T12:47:57.964Z,21.73
2018-02-10T12:50:25.400Z,20.00
2018-02-10T12:52:52.864Z,21.93
2018-02-10T12:55:20.416Z,20.53
2018-02-10T12:57:47.870Z,21.20
2018-02-10T13:00:15.402Z,22.27
2018-02-10T13:02:42.852Z,22.40
2018-02-10T13:05:10.290Z,21.60
2018-02-10T13:07:37.769Z,18.67
2018-02-10T13:10:05.243Z,19.20
2018-02-10T13:12:32.777Z,21.70
2018-02-10T13:15:00.928Z,23.13
2018-02-10T13:17:28.469Z,22.70
2018-02-10T13:19:55.945Z,18.65
2018-02-10T13:22:23.383Z,20.33
2018-02-10T13:24:50.905Z,21.17
2018-02-10T13:27:18.394Z,20.25
2018-02-10T13:29:45.813Z,18.00
2018-02-10T13:32:13.251Z,18.40
2018-02-10T13:34:40.753Z,17.70
2018-02-10T13:37:09.045Z,18.33
2018-02-10T13:39:36.512Z,17.30
2018-02-10T13:42:03.937Z,17.83
2018-02-10T13:44:31.369Z,17.83
2018-02-10T13:46:58.852Z,17.73
2018-02-10T13:49:26.287Z,18.47
2018-02-10T13:51:54.961Z,20.83
2018-02-10T13:54:22.449Z,19.60
2018-02-10T13:56:49.928Z,18.48
2018-02-10T13:59:17.363Z,18.13
2018-02-10T14:01:45.107Z,18.40
2018-02-10T14:04:12.532Z,17.87
2018-02-10T14:06:39.990Z,17.58
2018-02-10T14:09:07.420Z,17.30
2018-02-10T14:11:34.885Z,16.80
2018-02-10T14:14:02.333Z,16.13
2018-02-10T14:16:29.897Z,17.37
2018-02-10T14:18:57.434Z,18.37
2018-02-10T14:21:24.919Z,18.47
2018-02-10T14:23:52.368Z,17.10
2018-02-10T14:26:19.805Z,16.10
2018-02-10T14:28:47.260Z,17.08
2018-02-10T14:31:14.732Z,16.80
2018-02-10T14:33:42.189Z,15.93
2018-02-10T14:36:09.646Z,16.40
2018-02-10T14:38:37.114Z,14.70
2018-02-10T14:41:04.537Z,17.13
2018-02-10T14:43:32.041Z,16.10
2018-02-10T14:45:59.486Z,15.33
2018-02-10T14:48:26.909Z,15.83
2018-02-10T14:50:54.389Z,14.73
2018-02-10T14:53:21.826Z,14.03
2018-02-10T14:55:49.301Z,14.07
2018-02-10T14:58:16.740Z,13.05
2018-02-10T15:00:44.197Z,13.85
2018-02-10T15:03:11.629Z,13.20
2018-02-10T15:05:39.401Z,13.23
2018-02-10T15:08:06.848Z,12.40
2018-02-10T15:10:34.328Z,13.40
2018-02-10T15:13:01.750Z,12.50
2018-02-10T15:15:29.280Z,12.05
2018-02-10T15:17:56.728Z,12.77
2018-02-10T15:20:24.243Z,11.43
2018-02-10T15:22:51.713Z,10.90
2018-02-10T15:25:19.149Z,12.97
2018-02-10T15:27:46.856Z,11.77
2018-02-10T15:30:26.091Z,12.15
2018-02-10T15:33:05.446Z,12.87
2018-02-10T15:35:32.880Z,11.50
2018-02-10T15:38:00.343Z,11.47
2018-02-10T15:40:27.838Z,11.70
2018-02-10T15:42:55.290Z,12.20
2018-02-10T15:45:24.053Z,12.60
2018-02-10T15:47:51.541Z,11.65
2018-02-10T15:50:18.972Z,13.07
2018-02-10T15:52:46.410Z,12.60
2018-02-10T15:55:13.886Z,12.83
2018-02-10T15:57:41.324Z,13.47
2018-02-10T16:00:09.625Z,11.52
2018-02-10T16:02:37.074Z,13.30
2018-02-10T16:05:04.551Z,12.73
2018-02-10T16:07:31.989Z,13.10
2018-02-10T16:09:59.429Z,13.57
2018-02-10T16:12:27.085Z,11.43
2018-02-10T16:14:54.528Z,12.70
2018-02-10T16:17:21.983Z,10.90
2018-02-10T16:19:49.456Z,10.50
2018-02-10T16:22:17.094Z,11.90
2018-02-10T16:24:44.839Z,11.10
2018-02-10T16:27:12.297Z,11.40
2018-02-10T16:29:40.097Z,12.10
2018-02-10T16:32:07.546Z,11.50
2018-02-10T16:34:34.984Z,11.80
2018-02-10T16:37:02.449Z,9.70
2018-02-10T16:39:29.941Z,13.27
2018-02-10T16:41:57.469Z,12.40
2018-02-10T16:44:24.867Z,12.33
2018-02-10T16:46:52.369Z,11.73
2018-02-10T16:49:19.834Z,12.80
2018-02-10T16:51:47.261Z,12.87
2018-02-10T16:54:14.709Z,13.13
2018-02-10T16:56:42.141Z,11.47
2018-02-10T16:59:09.803Z,13.38
2018-02-10T17:01:37.233Z,13.00
2018-02-10T17:04:04.677Z,13.60
2018-02-10T17:06:32.115Z,14.13
2018-02-10T17:08:59.563Z,15.50
2018-02-10T17:11:27.005Z,13.00
2018-02-10T17:13:54.449Z,24.00
2018-02-10T17:16:21.916Z,13.67
2018-02-10T17:18:49.512Z,18.50
2018-02-10T17:21:17.042Z,18.80
2018-02-10T17:23:44.486Z,15.20
2018-02-10T17:26:11.924Z,14.90
2018-02-10T17:28:39.367Z,15.73
2018-02-10T17:31:07.864Z,18.10
2018-02-10T17:33:35.308Z,14.10
2018-02-10T17:36:02.806Z,16.70
2018-02-10T17:38:30.422Z,13.93
2018-02-10T17:40:57.870Z,17.52
2018-02-10T17:43:25.315Z,16.60
2018-02-10T17:45:52.754Z,18.83
2018-02-10T17:48:20.267Z,13.83
2018-02-10T17:50:47.713Z,13.07
2018-02-10T17:53:15.209Z,14.30
2018-02-10T17:55:42.612Z,13.87
2018-02-10T17:58:10.097Z,14.70
2018-02-10T18:00:37.533Z,13.50
2018-02-10T18:03:04.991Z,14.05
2018-02-10T18:05:32.413Z,14.23
2018-02-10T18:07:59.865Z,14.43
2018-02-10T18:10:27.313Z,14.13
2018-02-10T18:12:54.734Z,15.10
2018-02-10T18:15:22.302Z,16.47
2018-02-10T18:17:49.761Z,15.40
2018-02-10T18:20:17.290Z,15.73
2018-02-10T18:22:44.779Z,20.02
2018-02-10T18:25:12.227Z,18.40
2018-02-10T18:27:40.225Z,15.77
2018-02-10T18:30:07.749Z,17.33
2018-02-10T18:32:35.176Z,16.60
2018-02-10T18:35:02.629Z,13.73
2018-02-10T18:37:30.092Z,15.83
2018-02-10T18:39:57.626Z,18.12
2018-02-10T18:42:25.101Z,14.05
2018-02-10T18:44:52.536Z,14.13
2018-02-10T18:47:19.977Z,17.83
2018-02-10T18:49:47.422Z,17.10
2018-02-10T18:52:14.977Z,16.65
2018-02-10T18:54:42.444Z,16.80
2018-02-10T18:57:10.244Z,16.02
2018-02-10T18:59:37.674Z,16.50
2018-02-10T19:02:05.186Z,17.27
2018-02-10T19:04:32.808Z,19.20
2018-02-10T19:07:00.261Z,15.90
2018-02-10T19:09:27.720Z,18.23
2018-02-10T19:11:55.195Z,18.35
2018-02-10T19:14:22.636Z,17.90
2018-02-10T19:16:50.110Z,25.53
2018-02-10T19:19:17.544Z,18.77
2018-02-10T19:21:45.016Z,19.50
2018-02-10T19:24:12.464Z,18.40
2018-02-10T19:26:40.409Z,32.85
2018-02-10T19:29:07.884Z,21.80
2018-02-10T19:31:35.328Z,16.97
2018-02-10T19:34:02.777Z,18.40
2018-02-10T19:36:30.200Z,22.93
2018-02-10T19:38:57.689Z,21.90
2018-02-10T19:41:25.119Z,19.80
2018-02-10T19:43:52.569Z,22.43
2018-02-10T19:46:20.014Z,19.08
2018-02-10T19:48:47.457Z,21.73
2018-02-10T19:51:14.876Z,19.30
2018-02-10T19:53:42.321Z,18.90
2018-02-10T19:56:11.747Z,27.06
2018-02-10T19:58:39.243Z,21.50
2018-02-10T20:01:06.708Z,17.83
2018-02-10T20:03:34.164Z,19.90
2018-02-10T20:06:01.643Z,23.20
2018-02-10T20:08:29.205Z,24.87
2018-02-10T20:10:56.688Z,19.40
2018-02-10T20:13:24.179Z,21.87
2018-02-10T20:15:51.770Z,20.30
2018-02-10T20:18:19.249Z,19.10
2018-02-10T20:20:46.704Z,26.73
2018-02-10T20:23:14.132Z,22.43
2018-02-10T20:25:41.776Z,20.77
2018-02-10T20:28:09.212Z,22.90
2018-02-10T20:30:36.636Z,21.33
2018-02-10T20:33:04.159Z,20.10
2018-02-10T20:35:31.697Z,19.27
2018-02-10T20:37:59.401Z,20.08
2018-02-10T20:40:26.841Z,22.10
2018-02-10T20:42:54.304Z,20.08
2018-02-10T20:45:21.773Z,21.80
2018-02-10T20:47:49.225Z,31.40
2018-02-10T20:50:16.684Z,23.37
2018-02-10T20:52:44.143Z,32.70
2018-02-10T20:55:11.662Z,21.60
2018-02-10T20:57:39.143Z,23.73
2018-02-10T21:00:06.600Z,20.30
2018-02-10T21:02:34.057Z,18.83
2018-02-10T21:05:01.682Z,20.70
2018-02-10T21:07:29.136Z,20.10
2018-02-10T21:09:56.568Z,20.40
2018-02-10T21:12:24.069Z,19.90
2018-02-10T21:14:51.562Z,19.47
2018-02-10T21:17:19.013Z,19.10
2018-02-10T21:19:46.557Z,20.10
2018-02-10T21:22:13.997Z,20.07
2018-02-10T21:24:41.479Z,19.80
2018-02-10T21:27:08.941Z,22.67
2018-02-10T21:29:36.553Z,21.87
2018-02-10T21:32:04.001Z,19.43
2018-02-10T21:34:31.485Z,20.40
2018-02-10T21:36:58.905Z,19.35
2018-02-10T21:39:26.361Z,18.90
2018-02-10T21:41:54.113Z,20.23
2018-02-10T21:44:21.597Z,18.90
2018-02-10T21:46:49.131Z,18.13
2018-02-10T21:49:16.600Z,19.20
2018-02-10T21:51:44.248Z,19.03
2018-02-10T21:54:11.750Z,18.70
2018-02-10T21:56:39.239Z,18.20
2018-02-10T21:59:06.696Z,18.30
2018-02-10T22:01:34.240Z,18.27
2018-02-10T22:04:01.710Z,16.83
2018-02-10T22:06:29.150Z,15.80
2018-02-10T22:08:56.567Z,16.87
2018-02-10T22:11:24.027Z,18.83
2018-02-10T22:13:51.449Z,17.92
2018-02-10T22:16:19.022Z,16.00
2018-02-10T22:18:46.461Z,16.75
2018-02-10T22:21:13.986Z,16.23
2018-02-10T22:23:41.624Z,15.30
2018-02-10T22:26:09.261Z,14.20
2018-02-10T22:28:36.942Z,13.47
2018-02-10T22:31:04.893Z,12.97
2018-02-10T22:33:32.671Z,14.40
2018-02-10T22:36:00.347Z,13.93
2018-02-10T22:38:28.179Z,13.90
2018-02-10T22:40:56.526Z,13.77
2018-02-10T22:43:24.223Z,12.80
2018-02-10T22:45:51.718Z,13.83
2018-02-10T22:48:19.139Z,13.97
2018-02-10T22:50:46.592Z,12.50
2018-02-10T22:53:14.180Z,13.43
2018-02-10T22:55:41.766Z,12.87
2018-02-10T22:58:09.184Z,12.50
2018-02-10T23:00:36.687Z,11.60
2018-02-10T23:03:04.439Z,12.50
2018-02-10T23:05:32.491Z,11.00
2018-02-10T23:08:00.355Z,10.70
2018-02-10T23:10:28.020Z,11.97
2018-02-10T23:12:56.800Z,12.18
2018-02-10T23:15:24.516Z,11.27
2018-02-10T23:17:52.222Z,11.10
2018-02-10T23:20:19.829Z,10.90
2018-02-10T23:22:49.144Z,11.47
2018-02-10T23:25:16.918Z,9.87
2018-02-10T23:27:44.689Z,10.80
2018-02-10T23:30:12.148Z,9.90
2018-02-10T23:32:39.595Z,9.43
2018-02-10T23:35:07.085Z,9.57
2018-02-10T23:37:34.580Z,9.23
2018-02-10T23:40:02.016Z,8.33
2018-02-10T23:42:29.476Z,8.03
2018-02-10T23:44:56.913Z,8.80
2018-02-10T23:47:24.357Z,9.60
2018-02-10T23:49:52.741Z,7.87
2018-02-10T23:52:20.200Z,7.30
2018-02-10T23:54:47.629Z,8.27
2018-02-10T23:57:15.082Z,7.30
2018-02-10T23:59:42.495Z,7.93
